createdAt,value
2023-01-13T00:00:24.472Z,48.63
2023-01-13T00:01:24.415Z,50.23
2023-01-13T00:02:24.469Z,48.22
2023-01-13T00:03:24.395Z,51.18
2023-01-13T00:04:24.408Z,48.64
2023-01-13T00:05:24.402Z,50.23
2023-01-13T00:06:24.433Z,49.19
2023-01-13T00:07:24.383Z,47.70
2023-01-13T00:08:24.364Z,48.48
2023-01-13T00:09:24.367Z,49.05
2023-01-13T00:10:24.400Z,48.48
2023-01-13T00:11:24.361Z,47.40
2023-01-13T00:12:24.403Z,48.11
2023-01-13T00:13:24.344Z,48.87
2023-01-13T00:14:24.391Z,48.16
2023-01-13T00:15:24.339Z,50.07
2023-01-13T00:16:24.424Z,48.60
2023-01-13T00:17:24.347Z,50.32
2023-01-13T00:18:24.343Z,47.72
2023-01-13T00:19:24.412Z,52.01
2023-01-13T00:20:24.313Z,48.90
2023-01-13T00:21:24.387Z,47.85
2023-01-13T00:22:24.312Z,47.78
2023-01-13T00:23:24.409Z,48.88
2023-01-13T00:24:24.289Z,47.67
2023-01-13T00:25:24.306Z,54.09
2023-01-13T00:26:24.297Z,48.38
2023-01-13T00:27:24.275Z,48.07
2023-01-13T00:28:24.278Z,48.20
2023-01-13T00:29:24.279Z,53.22
2023-01-13T00:30:24.255Z,53.65
2023-01-13T00:31:24.269Z,49.18
2023-01-13T00:32:24.249Z,47.34
2023-01-13T00:33:24.223Z,47.80
2023-01-13T00:34:25.271Z,48.97
2023-01-13T00:35:24.209Z,51.48
2023-01-13T00:36:24.211Z,53.65
2023-01-13T00:37:24.219Z,49.99
2023-01-13T00:38:24.230Z,50.68
2023-01-13T00:39:24.234Z,49.17
2023-01-13T00:40:24.201Z,48.63
2023-01-13T00:41:24.239Z,47.54
2023-01-13T00:42:24.197Z,49.52
2023-01-13T00:43:24.185Z,51.36
2023-01-13T00:44:24.202Z,48.89
2023-01-13T00:45:24.214Z,48.56
2023-01-13T00:46:24.246Z,48.11
2023-01-13T00:47:24.155Z,48.16
2023-01-13T00:48:24.159Z,50.54
2023-01-13T00:49:24.138Z,49.16
2023-01-13T00:50:24.145Z,49.55
2023-01-13T00:51:25.197Z,51.06
2023-01-13T00:52:24.162Z,51.30
2023-01-13T00:53:24.229Z,48.70
2023-01-13T00:54:24.123Z,48.96
2023-01-13T00:55:24.110Z,48.49
2023-01-13T00:56:39.199Z,49.08
2023-01-13T00:57:26.109Z,47.45
2023-01-13T00:58:24.081Z,49.25
2023-01-13T00:59:24.088Z,48.62
2023-01-13T01:00:24.071Z,49.00
2023-01-13T01:01:24.251Z,48.82
2023-01-13T01:02:24.146Z,47.75
2023-01-13T01:03:24.079Z,47.14
2023-01-13T01:04:24.057Z,47.78
2023-01-13T01:05:24.057Z,51.27
2023-01-13T01:06:24.114Z,48.83
2023-01-13T01:07:24.061Z,49.47
2023-01-13T01:08:24.050Z,51.83
2023-01-13T01:09:24.043Z,50.35
2023-01-13T01:10:24.033Z,51.44
2023-01-13T01:11:24.071Z,48.45
2023-01-13T01:12:24.052Z,53.53
2023-01-13T01:13:24.018Z,50.90
2023-01-13T01:14:24.004Z,51.91
2023-01-13T01:15:24.004Z,51.59
2023-01-13T01:16:24.099Z,50.83
2023-01-13T01:17:23.991Z,49.00
2023-01-13T01:18:23.982Z,53.83
2023-01-13T01:19:24.022Z,52.61
2023-01-13T01:20:23.977Z,48.93
2023-01-13T01:21:23.980Z,49.80
2023-01-13T01:22:24.007Z,52.06
2023-01-13T01:23:23.967Z,50.47
2023-01-13T01:24:23.961Z,50.58
2023-01-13T01:25:23.948Z,50.99
2023-01-13T01:26:23.968Z,49.69
2023-01-13T01:27:23.968Z,49.61
2023-01-13T01:28:23.917Z,49.52
2023-01-13T01:29:23.971Z,50.56
2023-01-13T01:30:23.927Z,48.59
2023-01-13T01:31:23.933Z,49.73
2023-01-13T01:32:24.002Z,49.54
2023-01-13T01:33:23.900Z,53.39
2023-01-13T01:34:23.956Z,49.24
2023-01-13T01:35:23.884Z,50.74
2023-01-13T01:36:23.891Z,56.20
2023-01-13T01:37:23.877Z,54.09
2023-01-13T01:38:23.871Z,50.11
2023-01-13T01:39:23.921Z,51.34
2023-01-13T01:40:23.876Z,50.99
2023-01-13T01:41:23.889Z,50.94
2023-01-13T01:42:23.848Z,49.31
2023-01-13T01:43:23.884Z,49.98
2023-01-13T01:44:23.858Z,50.70
2023-01-13T01:45:23.884Z,52.08
2023-01-13T01:46:23.886Z,52.85
2023-01-13T01:47:23.832Z,51.10
2023-01-13T01:48:23.812Z,50.18
2023-01-13T01:49:23.854Z,52.32
2023-01-13T01:50:23.781Z,52.39
2023-01-13T01:51:23.794Z,53.56
2023-01-13T01:52:23.792Z,53.71
2023-01-13T01:53:23.815Z,49.60
2023-01-13T01:54:23.819Z,52.94
2023-01-13T01:55:23.758Z,54.61
2023-01-13T01:56:23.786Z,58.28
2023-01-13T01:57:23.745Z,52.29
2023-01-13T01:58:23.743Z,50.59
2023-01-13T01:59:23.757Z,53.20
2023-01-13T02:00:23.761Z,55.55
2023-01-13T02:01:23.879Z,52.43
2023-01-13T02:02:23.744Z,51.92
2023-01-13T02:03:23.731Z,53.36
2023-01-13T02:04:23.701Z,55.89
2023-01-13T02:05:23.702Z,52.88
2023-01-13T02:06:23.740Z,53.80
2023-01-13T02:07:23.679Z,52.67
2023-01-13T02:08:23.687Z,50.03
2023-01-13T02:09:23.671Z,52.12
2023-01-13T02:10:23.664Z,49.67
2023-01-13T02:11:24.704Z,51.90
2023-01-13T02:12:23.657Z,56.35
2023-01-13T02:13:24.587Z,52.63
2023-01-13T02:14:23.641Z,49.64
2023-01-13T02:15:23.669Z,52.03
2023-01-13T02:16:23.751Z,50.22
2023-01-13T02:17:23.664Z,49.40
2023-01-13T02:18:23.620Z,50.19
2023-01-13T02:19:23.608Z,51.61
2023-01-13T02:20:23.587Z,48.94
2023-01-13T02:21:23.575Z,50.11
2023-01-13T02:22:23.620Z,53.07
2023-01-13T02:23:23.605Z,49.74
2023-01-13T02:24:23.563Z,49.06
2023-01-13T02:25:23.591Z,49.77
2023-01-13T02:26:23.556Z,49.01
2023-01-13T02:27:23.560Z,51.24
2023-01-13T02:28:23.590Z,51.51
2023-01-13T02:29:23.563Z,51.55
2023-01-13T02:30:23.548Z,49.91
2023-01-13T02:31:23.555Z,54.51
2023-01-13T02:32:23.579Z,49.60
2023-01-13T02:33:23.504Z,53.45
2023-01-13T02:34:23.525Z,52.90
2023-01-13T02:35:23.498Z,50.74
2023-01-13T02:36:23.528Z,51.23
2023-01-13T02:37:23.569Z,48.04
2023-01-13T02:38:23.483Z,50.11
2023-01-13T02:39:23.495Z,49.70
2023-01-13T02:40:23.469Z,51.96
2023-01-13T02:41:23.518Z,50.97
2023-01-13T02:42:23.461Z,51.84
2023-01-13T02:43:23.462Z,50.96
2023-01-13T02:44:23.508Z,52.05
2023-01-13T02:45:23.583Z,52.32
2023-01-13T02:46:23.431Z,51.11
2023-01-13T02:47:23.420Z,48.64
2023-01-13T02:48:23.403Z,51.31
2023-01-13T02:49:24.469Z,49.35
2023-01-13T02:50:23.454Z,51.29
2023-01-13T02:51:23.400Z,50.34
2023-01-13T02:52:23.420Z,50.37
2023-01-13T02:53:23.420Z,48.58
2023-01-13T02:54:23.422Z,49.85
2023-01-13T02:55:23.377Z,52.13
2023-01-13T02:56:23.462Z,52.90
2023-01-13T02:57:23.360Z,51.07
2023-01-13T02:58:23.379Z,56.04
2023-01-13T02:59:23.350Z,50.45
2023-01-13T03:00:23.412Z,50.37
2023-01-13T03:01:23.557Z,50.89
2023-01-13T03:02:23.484Z,52.00
2023-01-13T03:03:23.368Z,50.66
2023-01-13T03:04:23.334Z,50.30
2023-01-13T03:05:24.378Z,52.70
2023-01-13T03:06:23.341Z,50.50
2023-01-13T03:07:23.360Z,50.17
2023-01-13T03:08:23.343Z,54.77
2023-01-13T03:09:23.316Z,52.65
2023-01-13T03:10:23.318Z,50.19
2023-01-13T03:11:23.337Z,49.86
2023-01-13T03:12:23.424Z,51.07
2023-01-13T03:13:23.312Z,52.58
2023-01-13T03:14:23.278Z,50.46
2023-01-13T03:15:23.280Z,50.78
2023-01-13T03:16:23.377Z,54.72
2023-01-13T03:17:23.272Z,50.55
2023-01-13T03:18:23.263Z,56.00
2023-01-13T03:19:23.255Z,53.26
2023-01-13T03:20:23.243Z,50.16
2023-01-13T03:21:23.291Z,51.54
2023-01-13T03:22:23.247Z,49.93
2023-01-13T03:23:23.304Z,49.65
2023-01-13T03:24:23.237Z,53.24
2023-01-13T03:25:23.207Z,48.92
2023-01-13T03:26:23.215Z,50.55
2023-01-13T03:27:23.213Z,52.03
2023-01-13T03:28:23.210Z,51.96
2023-01-13T03:29:23.238Z,53.14
2023-01-13T03:30:23.257Z,51.68
2023-01-13T03:31:23.319Z,53.47
2023-01-13T03:32:23.254Z,54.99
2023-01-13T03:33:23.230Z,52.79
2023-01-13T03:34:23.170Z,55.74
2023-01-13T03:35:23.154Z,56.15
2023-01-13T03:36:23.145Z,57.22
2023-01-13T03:37:23.194Z,63.68
2023-01-13T03:38:23.140Z,65.41
2023-01-13T03:39:23.123Z,63.60
2023-01-13T03:40:23.126Z,62.84
2023-01-13T03:41:23.111Z,59.81
2023-01-13T03:42:23.160Z,60.36
2023-01-13T03:43:23.102Z,61.02
2023-01-13T03:44:23.113Z,57.42
2023-01-13T03:45:23.126Z,55.38
2023-01-13T03:46:23.167Z,52.81
2023-01-13T03:47:23.099Z,50.98
2023-01-13T03:48:23.135Z,51.71
2023-01-13T03:49:23.080Z,51.75
2023-01-13T03:50:23.095Z,52.68
2023-01-13T03:51:23.091Z,52.96
2023-01-13T03:52:23.167Z,51.39
2023-01-13T03:53:23.052Z,50.63
2023-01-13T03:54:23.092Z,54.16
2023-01-13T03:55:23.032Z,50.93
2023-01-13T03:56:23.038Z,52.08
2023-01-13T03:57:23.014Z,49.93
2023-01-13T03:58:23.033Z,49.91
2023-01-13T03:59:23.006Z,51.59
2023-01-13T04:00:23.047Z,55.39
2023-01-13T04:01:23.183Z,52.39
2023-01-13T04:02:23.044Z,49.95
2023-01-13T04:03:23.018Z,54.43
2023-01-13T04:04:22.996Z,51.15
2023-01-13T04:05:23.035Z,52.90
2023-01-13T04:06:22.985Z,52.03
2023-01-13T04:07:22.970Z,51.08
2023-01-13T04:08:22.963Z,49.43
2023-01-13T04:09:22.969Z,49.39
2023-01-13T04:10:22.977Z,53.60
2023-01-13T04:11:22.940Z,51.22
2023-01-13T04:12:22.929Z,50.66
2023-01-13T04:13:22.911Z,52.17
2023-01-13T04:14:22.927Z,52.66
2023-01-13T04:15:22.925Z,54.25
2023-01-13T04:16:22.997Z,53.37
2023-01-13T04:17:22.926Z,51.60
2023-01-13T04:18:22.906Z,50.15
2023-01-13T04:19:22.902Z,53.03
2023-01-13T04:20:22.874Z,57.53
2023-01-13T04:21:22.924Z,57.57
2023-01-13T04:22:22.880Z,56.98
2023-01-13T04:23:22.900Z,59.92
2023-01-13T04:24:22.876Z,62.76
2023-01-13T04:25:22.870Z,62.22
2023-01-13T04:26:22.855Z,62.27
2023-01-13T04:27:22.904Z,62.18
2023-01-13T04:28:22.842Z,61.06
2023-01-13T04:29:22.838Z,59.94
2023-01-13T04:30:22.838Z,59.46
2023-01-13T04:31:22.927Z,54.93
2023-01-13T04:32:22.851Z,54.69
2023-01-13T04:33:22.845Z,55.62
2023-01-13T04:34:22.819Z,54.48
2023-01-13T04:35:22.808Z,56.79
2023-01-13T04:36:22.845Z,57.18
2023-01-13T04:37:22.823Z,57.35
2023-01-13T04:38:22.807Z,56.40
2023-01-13T04:39:22.792Z,56.47
2023-01-13T04:40:22.803Z,57.51
2023-01-13T04:41:22.828Z,57.33
2023-01-13T04:42:22.804Z,59.41
2023-01-13T04:43:22.769Z,59.60
2023-01-13T04:44:22.772Z,59.22
2023-01-13T04:45:22.808Z,58.56
2023-01-13T04:46:22.824Z,56.96
2023-01-13T04:47:22.776Z,56.25
2023-01-13T04:48:22.737Z,52.61
2023-01-13T04:49:22.799Z,53.12
2023-01-13T04:50:22.821Z,52.82
2023-01-13T04:51:22.747Z,52.87
2023-01-13T04:52:22.754Z,51.56
2023-01-13T04:53:22.812Z,54.21
2023-01-13T04:54:22.764Z,54.47
2023-01-13T04:55:22.716Z,52.06
2023-01-13T04:56:22.708Z,52.11
2023-01-13T04:57:22.727Z,50.96
2023-01-13T04:58:22.833Z,53.42
2023-01-13T04:59:22.694Z,54.28
2023-01-13T05:00:22.737Z,50.07
2023-01-13T05:01:22.846Z,51.24
2023-01-13T05:02:22.785Z,51.57
2023-01-13T05:03:22.675Z,51.22
2023-01-13T05:04:22.718Z,52.59
2023-01-13T05:05:22.712Z,53.99
2023-01-13T05:06:22.707Z,50.34
2023-01-13T05:07:22.752Z,54.84
2023-01-13T05:08:22.650Z,52.45
2023-01-13T05:09:22.666Z,51.91
2023-01-13T05:10:24.050Z,53.97
2023-01-13T05:11:23.663Z,52.98
2023-01-13T05:12:22.671Z,54.97
2023-01-13T05:13:22.688Z,52.95
2023-01-13T05:14:22.637Z,53.65
2023-01-13T05:15:22.620Z,48.98
2023-01-13T05:16:22.777Z,51.12
2023-01-13T05:17:22.629Z,54.13
2023-01-13T05:18:22.620Z,51.72
2023-01-13T05:19:22.607Z,55.24
2023-01-13T05:20:22.618Z,54.09
2023-01-13T05:21:22.654Z,54.45
2023-01-13T05:22:22.588Z,53.43
2023-01-13T05:23:22.618Z,55.55
2023-01-13T05:24:22.590Z,55.76
2023-01-13T05:25:22.586Z,54.85
2023-01-13T05:26:22.592Z,52.93
2023-01-13T05:27:22.606Z,52.29
2023-01-13T05:28:22.589Z,54.67
2023-01-13T05:29:22.576Z,54.74
2023-01-13T05:30:22.574Z,57.29
2023-01-13T05:31:22.586Z,55.40
2023-01-13T05:32:22.620Z,55.39
2023-01-13T05:33:22.587Z,54.71
2023-01-13T05:34:22.535Z,58.75
2023-01-13T05:35:22.536Z,59.03
2023-01-13T05:36:22.514Z,57.47
2023-01-13T05:37:22.516Z,57.15
2023-01-13T05:38:22.568Z,56.66
2023-01-13T05:39:22.553Z,57.18
2023-01-13T05:40:22.555Z,57.01
2023-01-13T05:41:22.506Z,54.88
2023-01-13T05:42:22.500Z,52.99
2023-01-13T05:43:22.536Z,53.82
2023-01-13T05:44:22.546Z,55.23
2023-01-13T05:45:22.478Z,56.56
2023-01-13T05:46:22.497Z,55.34
2023-01-13T05:47:23.519Z,54.17
2023-01-13T05:48:22.512Z,56.78
2023-01-13T05:49:22.513Z,52.41
2023-01-13T05:50:22.490Z,54.77
2023-01-13T05:51:22.495Z,55.92
2023-01-13T05:52:22.470Z,56.91
2023-01-13T05:53:22.425Z,54.14
2023-01-13T05:54:22.535Z,55.43
2023-01-13T05:55:22.473Z,57.55
2023-01-13T05:56:22.431Z,55.52
2023-01-13T05:57:22.426Z,56.10
2023-01-13T05:58:22.442Z,54.65
2023-01-13T05:59:22.459Z,57.21
2023-01-13T06:00:22.435Z,56.49
2023-01-13T06:01:22.496Z,56.66
2023-01-13T06:02:22.416Z,59.98
2023-01-13T06:03:22.420Z,60.55
2023-01-13T06:04:22.443Z,58.62
2023-01-13T06:05:22.366Z,53.95
2023-01-13T06:06:22.447Z,53.28
2023-01-13T06:07:22.381Z,56.88
2023-01-13T06:08:22.388Z,57.04
2023-01-13T06:09:22.365Z,55.42
2023-01-13T06:10:22.346Z,55.84
2023-01-13T06:11:22.418Z,56.33
2023-01-13T06:12:22.376Z,57.57
2023-01-13T06:13:22.353Z,56.79
2023-01-13T06:14:22.376Z,56.03
2023-01-13T06:15:22.391Z,57.18
2023-01-13T06:16:22.374Z,54.67
2023-01-13T06:17:22.329Z,57.98
2023-01-13T06:18:22.336Z,55.86
2023-01-13T06:19:22.347Z,55.76
2023-01-13T06:20:22.317Z,53.45
2023-01-13T06:21:22.315Z,53.26
2023-01-13T06:22:22.316Z,54.97
2023-01-13T06:23:22.342Z,56.32
2023-01-13T06:24:22.363Z,53.03
2023-01-13T06:25:22.294Z,56.35
2023-01-13T06:26:22.294Z,54.89
2023-01-13T06:27:22.297Z,54.84
2023-01-13T06:28:22.275Z,55.11
2023-01-13T06:29:22.332Z,58.16
2023-01-13T06:30:22.271Z,57.45
2023-01-13T06:31:22.357Z,54.52
2023-01-13T06:32:22.333Z,55.02
2023-01-13T06:33:22.247Z,56.17
2023-01-13T06:34:22.286Z,55.19
2023-01-13T06:35:22.240Z,55.80
2023-01-13T06:36:22.290Z,57.26
2023-01-13T06:37:22.324Z,56.32
2023-01-13T06:38:22.260Z,54.55
2023-01-13T06:39:22.298Z,56.58
2023-01-13T06:40:22.224Z,54.85
2023-01-13T06:41:22.211Z,55.72
2023-01-13T06:42:22.209Z,55.50
2023-01-13T06:43:22.247Z,54.44
2023-01-13T06:44:22.226Z,56.14
2023-01-13T06:45:22.268Z,56.23
2023-01-13T06:46:22.257Z,57.07
2023-01-13T06:47:22.263Z,54.99
2023-01-13T06:48:22.219Z,61.46
2023-01-13T06:49:22.233Z,56.79
2023-01-13T06:50:22.156Z,57.71
2023-01-13T06:51:22.260Z,56.90
2023-01-13T06:52:22.204Z,57.86
2023-01-13T06:53:22.164Z,57.16
2023-01-13T06:54:22.195Z,58.87
2023-01-13T06:55:22.214Z,55.57
2023-01-13T06:56:22.168Z,57.37
2023-01-13T06:57:22.161Z,57.64
2023-01-13T06:58:22.148Z,57.24
2023-01-13T06:59:22.189Z,55.50
2023-01-13T07:00:22.126Z,55.90
2023-01-13T07:01:22.221Z,52.60
2023-01-13T07:02:22.297Z,55.94
2023-01-13T07:03:22.115Z,58.86
2023-01-13T07:04:22.167Z,58.82
2023-01-13T07:05:22.131Z,56.06
2023-01-13T07:06:22.123Z,56.58
2023-01-13T07:07:22.136Z,56.46
2023-01-13T07:08:22.118Z,57.09
2023-01-13T07:09:22.198Z,57.15
2023-01-13T07:10:22.172Z,55.30
2023-01-13T07:11:22.068Z,57.81
2023-01-13T07:12:22.087Z,55.61
2023-01-13T07:13:22.079Z,55.94
2023-01-13T07:14:22.069Z,54.71
2023-01-13T07:15:22.043Z,58.11
2023-01-13T07:16:22.162Z,56.86
2023-01-13T07:17:22.033Z,56.86
2023-01-13T07:18:22.050Z,53.87
2023-01-13T07:19:22.280Z,58.48
2023-01-13T07:20:23.012Z,55.71
2023-01-13T07:21:22.164Z,53.88
2023-01-13T07:22:22.025Z,55.62
2023-01-13T07:23:22.043Z,55.97
2023-01-13T07:24:22.004Z,57.14
2023-01-13T07:25:22.006Z,53.20
2023-01-13T07:26:22.024Z,52.88
2023-01-13T07:27:22.032Z,53.77
2023-01-13T07:28:21.987Z,53.80
2023-01-13T07:29:21.994Z,57.78
2023-01-13T07:30:21.980Z,56.05
2023-01-13T07:31:22.030Z,55.92
2023-01-13T07:32:22.010Z,57.43
2023-01-13T07:33:22.023Z,56.95
2023-01-13T07:34:22.083Z,53.90
2023-01-13T07:35:22.054Z,52.41
2023-01-13T07:36:22.070Z,53.81
2023-01-13T07:37:21.964Z,55.59
2023-01-13T07:38:21.951Z,53.93
2023-01-13T07:39:21.986Z,56.17
2023-01-13T07:40:21.927Z,56.54
2023-01-13T07:41:22.009Z,55.54
2023-01-13T07:42:21.919Z,54.86
2023-01-13T07:43:21.963Z,55.83
2023-01-13T07:44:21.956Z,53.99
2023-01-13T07:45:21.995Z,52.89
2023-01-13T07:46:21.897Z,54.32
2023-01-13T07:47:22.049Z,56.62
2023-01-13T07:48:21.884Z,57.07
2023-01-13T07:49:21.885Z,56.66
2023-01-13T07:50:21.942Z,56.85
2023-01-13T07:51:21.874Z,55.25
2023-01-13T07:52:21.898Z,52.95
2023-01-13T07:53:21.888Z,55.50
2023-01-13T07:54:39.014Z,55.95
2023-01-13T07:55:22.880Z,55.36
2023-01-13T07:56:21.840Z,54.82
2023-01-13T07:57:22.852Z,55.35
2023-01-13T07:58:21.836Z,54.00
2023-01-13T07:59:21.873Z,53.99
2023-01-13T08:00:21.863Z,54.09
2023-01-13T08:01:21.978Z,53.96
2023-01-13T08:02:22.123Z,55.11
2023-01-13T08:03:22.185Z,53.16
2023-01-13T08:04:21.875Z,54.52
2023-01-13T08:05:21.961Z,58.40
2023-01-13T08:06:21.940Z,55.11
2023-01-13T08:07:21.860Z,60.68
2023-01-13T08:08:21.915Z,54.95
2023-01-13T08:09:21.930Z,52.56
2023-01-13T08:10:21.833Z,53.00
2023-01-13T08:11:23.571Z,55.79
2023-01-13T08:12:22.918Z,55.96
2023-01-13T08:13:21.836Z,54.38
2023-01-13T08:14:21.801Z,55.08
2023-01-13T08:15:21.803Z,56.97
2023-01-13T08:16:21.932Z,58.00
2023-01-13T08:17:21.872Z,56.73
2023-01-13T08:18:21.786Z,54.25
2023-01-13T08:19:21.737Z,52.80
2023-01-13T08:20:21.747Z,54.92
2023-01-13T08:21:21.815Z,54.34
2023-01-13T08:22:21.717Z,58.69
2023-01-13T08:23:21.774Z,57.52
2023-01-13T08:24:21.728Z,54.32
2023-01-13T08:25:23.419Z,55.77
2023-01-13T08:26:21.737Z,55.31
2023-01-13T08:27:21.711Z,57.09
2023-01-13T08:28:21.760Z,54.94
2023-01-13T08:29:21.740Z,54.86
2023-01-13T08:30:21.699Z,56.21
2023-01-13T08:31:21.755Z,56.95
2023-01-13T08:32:21.680Z,57.55
2023-01-13T08:33:21.785Z,55.89
2023-01-13T08:34:21.663Z,56.75
2023-01-13T08:35:21.687Z,55.85
2023-01-13T08:36:21.705Z,54.82
2023-01-13T08:37:21.660Z,54.11
2023-01-13T08:38:21.783Z,54.73
2023-01-13T08:39:21.684Z,54.07
2023-01-13T08:40:21.660Z,54.35
2023-01-13T08:41:21.664Z,57.66
2023-01-13T08:42:21.667Z,56.72
2023-01-13T08:43:21.682Z,57.36
2023-01-13T08:44:21.638Z,54.91
2023-01-13T08:45:21.624Z,55.00
2023-01-13T08:46:21.705Z,55.88
2023-01-13T08:47:21.650Z,56.23
2023-01-13T08:48:21.667Z,56.56
2023-01-13T08:49:21.629Z,54.83
2023-01-13T08:50:21.618Z,53.08
2023-01-13T08:51:21.594Z,51.15
2023-01-13T08:52:21.607Z,55.19
2023-01-13T08:53:21.599Z,53.95
2023-01-13T08:54:21.619Z,54.32
2023-01-13T08:55:21.577Z,53.16
2023-01-13T08:56:21.631Z,53.49
2023-01-13T08:57:21.633Z,55.78
2023-01-13T08:58:21.641Z,55.03
2023-01-13T08:59:21.555Z,56.95
2023-01-13T09:00:21.566Z,58.10
2023-01-13T09:01:21.654Z,56.74
2023-01-13T09:02:21.627Z,54.67
2023-01-13T09:03:21.554Z,54.75
2023-01-13T09:04:21.639Z,55.15
2023-01-13T09:05:21.632Z,54.02
2023-01-13T09:06:21.615Z,55.00
2023-01-13T09:07:21.504Z,55.43
2023-01-13T09:08:21.622Z,54.14
2023-01-13T09:09:21.493Z,53.43
2023-01-13T09:10:21.531Z,55.42
2023-01-13T09:11:21.579Z,55.66
2023-01-13T09:12:21.490Z,55.46
2023-01-13T09:13:22.559Z,54.07
2023-01-13T09:14:21.533Z,54.09
2023-01-13T09:15:21.500Z,53.29
2023-01-13T09:16:21.547Z,54.89
2023-01-13T09:17:21.464Z,55.16
2023-01-13T09:18:21.471Z,54.65
2023-01-13T09:19:21.436Z,53.09
2023-01-13T09:20:21.446Z,54.73
2023-01-13T09:21:21.490Z,55.75
2023-01-13T09:22:21.445Z,53.83
2023-01-13T09:23:21.437Z,53.38
2023-01-13T09:24:21.431Z,56.72
2023-01-13T09:25:21.403Z,55.13
2023-01-13T09:26:21.468Z,52.85
2023-01-13T09:27:21.403Z,55.53
2023-01-13T09:28:21.653Z,57.50
2023-01-13T09:29:21.397Z,56.06
2023-01-13T09:30:21.400Z,55.58
2023-01-13T09:31:21.435Z,55.84
2023-01-13T09:32:21.357Z,55.58
2023-01-13T09:33:21.400Z,54.48
2023-01-13T09:34:21.411Z,56.54
2023-01-13T09:35:21.384Z,55.21
2023-01-13T09:36:22.358Z,58.91
2023-01-13T09:37:21.342Z,54.56
2023-01-13T09:38:21.346Z,54.17
2023-01-13T09:39:21.491Z,55.09
2023-01-13T09:40:21.349Z,55.89
2023-01-13T09:41:21.362Z,55.36
2023-01-13T09:42:21.309Z,56.66
2023-01-13T09:43:21.314Z,55.02
2023-01-13T09:44:21.312Z,57.78
2023-01-13T09:45:21.368Z,54.63
2023-01-13T09:46:21.348Z,55.01
2023-01-13T09:47:21.301Z,56.28
2023-01-13T09:48:21.298Z,57.98
2023-01-13T09:49:21.296Z,54.45
2023-01-13T09:50:21.441Z,55.28
2023-01-13T09:51:21.349Z,58.48
2023-01-13T09:52:21.338Z,53.66
2023-01-13T09:53:21.280Z,53.54
2023-01-13T09:54:21.255Z,55.72
2023-01-13T09:55:21.297Z,54.03
2023-01-13T09:56:21.273Z,54.82
2023-01-13T09:57:21.242Z,56.07
2023-01-13T09:58:21.269Z,54.73
2023-01-13T09:59:21.221Z,55.67
2023-01-13T10:00:21.255Z,56.90
2023-01-13T10:01:21.285Z,59.23
2023-01-13T10:02:21.235Z,59.46
2023-01-13T10:03:21.241Z,60.54
2023-01-13T10:04:21.245Z,57.94
2023-01-13T10:05:21.222Z,54.49
2023-01-13T10:06:21.167Z,55.39
2023-01-13T10:07:25.047Z,57.18
2023-01-13T10:08:22.266Z,56.54
2023-01-13T10:09:21.160Z,57.14
2023-01-13T10:10:21.226Z,57.63
2023-01-13T10:11:21.142Z,56.68
2023-01-13T10:12:21.169Z,54.29
2023-01-13T10:13:21.128Z,55.44
2023-01-13T10:14:21.134Z,54.16
2023-01-13T10:15:21.188Z,55.62
2023-01-13T10:16:21.160Z,52.78
2023-01-13T10:17:21.133Z,57.30
2023-01-13T10:18:21.113Z,56.77
2023-01-13T10:19:21.115Z,55.78
2023-01-13T10:20:21.120Z,53.89
2023-01-13T10:21:21.142Z,56.71
2023-01-13T10:22:21.165Z,54.87
2023-01-13T10:23:21.104Z,54.09
2023-01-13T10:24:21.092Z,56.79
2023-01-13T10:25:21.080Z,54.78
2023-01-13T10:26:21.165Z,54.89
2023-01-13T10:27:21.107Z,58.45
2023-01-13T10:28:21.087Z,52.72
2023-01-13T10:29:21.134Z,54.14
2023-01-13T10:30:21.141Z,54.07
2023-01-13T10:31:21.111Z,55.61
2023-01-13T10:32:21.032Z,55.16
2023-01-13T10:33:21.009Z,56.81
2023-01-13T10:34:21.023Z,54.69
2023-01-13T10:35:21.049Z,56.02
2023-01-13T10:36:20.983Z,53.73
2023-01-13T10:37:21.008Z,59.09
2023-01-13T10:38:20.996Z,54.42
2023-01-13T10:39:21.002Z,55.10
2023-01-13T10:40:21.056Z,58.30
2023-01-13T10:41:21.073Z,55.08
2023-01-13T10:42:20.969Z,57.06
2023-01-13T10:43:20.978Z,56.15
2023-01-13T10:44:21.141Z,53.65
2023-01-13T10:45:20.961Z,54.08
2023-01-13T10:46:20.990Z,55.63
2023-01-13T10:47:20.965Z,55.23
2023-01-13T10:48:20.972Z,53.54
2023-01-13T10:49:20.997Z,55.13
2023-01-13T10:50:20.930Z,56.31
2023-01-13T10:51:20.977Z,53.12
2023-01-13T10:52:20.940Z,55.74
2023-01-13T10:53:20.925Z,54.42
2023-01-13T10:54:20.903Z,53.42
2023-01-13T10:55:20.899Z,53.75
2023-01-13T10:56:20.941Z,52.86
2023-01-13T10:57:20.947Z,54.75
2023-01-13T10:58:20.897Z,53.93
2023-01-13T10:59:20.911Z,53.73
2023-01-13T11:00:20.871Z,53.93
2023-01-13T11:01:21.093Z,57.63
2023-01-13T11:02:25.982Z,57.42
2023-01-13T11:03:22.864Z,56.33
2023-01-13T11:04:20.880Z,55.94
2023-01-13T11:05:20.855Z,55.57
2023-01-13T11:06:20.832Z,55.80
2023-01-13T11:07:20.925Z,56.17
2023-01-13T11:08:20.898Z,54.19
2023-01-13T11:09:20.878Z,55.47
2023-01-13T11:10:20.835Z,56.50
2023-01-13T11:11:20.862Z,56.86
2023-01-13T11:12:20.870Z,58.30
2023-01-13T11:13:20.836Z,56.62
2023-01-13T11:14:20.799Z,56.29
2023-01-13T11:15:20.884Z,56.03
2023-01-13T11:16:21.001Z,54.96
2023-01-13T11:17:20.838Z,54.35
2023-01-13T11:18:20.895Z,55.05
2023-01-13T11:19:20.796Z,56.68
2023-01-13T11:20:20.772Z,57.78
2023-01-13T11:21:20.770Z,52.90
2023-01-13T11:22:20.760Z,54.78
2023-01-13T11:23:20.801Z,56.61
2023-01-13T11:24:20.801Z,55.11
2023-01-13T11:25:20.750Z,54.26
2023-01-13T11:26:20.745Z,57.67
2023-01-13T11:27:20.742Z,55.58
2023-01-13T11:28:20.787Z,56.71
2023-01-13T11:29:20.737Z,57.37
2023-01-13T11:30:21.720Z,58.67
2023-01-13T11:31:20.764Z,58.65
2023-01-13T11:32:20.716Z,58.59
2023-01-13T11:33:20.792Z,58.05
2023-01-13T11:34:20.707Z,57.99
2023-01-13T11:35:20.754Z,56.27
2023-01-13T11:36:20.907Z,61.11
2023-01-13T11:37:21.684Z,57.39
2023-01-13T11:38:20.705Z,55.28
2023-01-13T11:39:20.723Z,57.77
2023-01-13T11:40:20.790Z,55.81
2023-01-13T11:41:20.743Z,54.55
2023-01-13T11:42:20.667Z,58.61
2023-01-13T11:43:20.673Z,52.96
2023-01-13T11:44:20.671Z,54.76
2023-01-13T11:45:20.722Z,55.03
2023-01-13T11:46:20.691Z,56.33
2023-01-13T11:47:20.673Z,58.38
2023-01-13T11:48:20.665Z,56.40
2023-01-13T11:49:22.350Z,55.11
2023-01-13T11:50:21.644Z,54.11
2023-01-13T11:51:20.660Z,56.28
2023-01-13T11:52:20.660Z,55.65
2023-01-13T11:53:20.622Z,55.39
2023-01-13T11:54:20.615Z,54.88
2023-01-13T11:55:36.454Z,53.91
2023-01-13T11:56:22.596Z,53.88
2023-01-13T11:57:20.610Z,53.80
2023-01-13T11:58:20.632Z,54.89
2023-01-13T11:59:20.568Z,56.36
2023-01-13T12:00:20.595Z,56.65
2023-01-13T12:01:23.188Z,58.65
2023-01-13T12:02:21.648Z,58.68
2023-01-13T12:03:20.676Z,57.32
2023-01-13T12:04:20.554Z,56.54
2023-01-13T12:05:20.584Z,57.17
2023-01-13T12:06:20.598Z,56.62
2023-01-13T12:07:23.052Z,57.36
2023-01-13T12:08:21.588Z,56.20
2023-01-13T12:09:20.555Z,57.52
2023-01-13T12:10:20.524Z,54.89
2023-01-13T12:11:20.624Z,54.44
2023-01-13T12:12:20.541Z,57.25
2023-01-13T12:13:20.560Z,55.31
2023-01-13T12:14:20.507Z,56.06
2023-01-13T12:15:20.551Z,55.32
2023-01-13T12:16:20.542Z,53.64
2023-01-13T12:17:20.515Z,57.06
2023-01-13T12:18:20.494Z,57.15
2023-01-13T12:19:20.502Z,56.80
2023-01-13T12:20:20.499Z,54.48
2023-01-13T12:21:20.499Z,59.69
2023-01-13T12:22:21.548Z,56.91
2023-01-13T12:23:20.523Z,56.47
2023-01-13T12:24:20.455Z,57.92
2023-01-13T12:25:20.502Z,56.23
2023-01-13T12:26:20.462Z,58.13
2023-01-13T12:27:20.563Z,56.58
2023-01-13T12:28:20.510Z,56.27
2023-01-13T12:29:20.551Z,57.04
2023-01-13T12:30:20.493Z,56.25
2023-01-13T12:31:20.491Z,55.22
2023-01-13T12:32:20.433Z,55.17
2023-01-13T12:33:20.457Z,55.14
2023-01-13T12:34:20.446Z,56.36
2023-01-13T12:35:20.429Z,56.61
2023-01-13T12:36:20.391Z,58.59
2023-01-13T12:37:20.404Z,58.47
2023-01-13T12:38:21.028Z,56.25
2023-01-13T12:39:20.425Z,55.67
2023-01-13T12:40:20.404Z,55.19
2023-01-13T12:41:20.381Z,57.58
2023-01-13T12:42:20.378Z,57.38
2023-01-13T12:43:20.386Z,56.81
2023-01-13T12:44:20.535Z,57.31
2023-01-13T12:45:20.373Z,57.25
2023-01-13T12:46:20.366Z,55.20
2023-01-13T12:47:20.337Z,56.15
2023-01-13T12:48:20.349Z,63.26
2023-01-13T12:49:20.383Z,60.88
2023-01-13T12:50:20.392Z,60.15
2023-01-13T12:51:20.379Z,59.93
2023-01-13T12:52:20.327Z,60.54